Time;durP1;ratioP1;P1;durP2;ratioP2;P2;SDS_P1;SDS_P2;PMS_P1;PMS_P2;Temp;Humidity;BMP_temperature;BMP_pressure;BME280_temperature;BME280_humidity;BME280_pressure;Samples;Min_cycle;Max_cycle;Signal;HPM_P1;HPM_P2
2021/12/22 00:01:43;;;;;;;23.55;9.48;;;;;;;-10.67;100.00;99775.74;1792729;78;21656;-63
2021/12/22 00:04:10;;;;;;;;;;;;;;;-10.75;100.00;99773.79;1776296;78;20995;-63
2021/12/22 00:06:36;;;;;;;21.37;8.65;;;;;;;-10.77;100.00;99778.84;1761786;80;20134;-63
2021/12/22 00:09:04;;;;;;;19.57;8.70;;;;;;;-10.83;100.00;99778.88;1764936;79;21007;-63
2021/12/22 00:11:31;;;;;;;16.62;8.70;;;;;;;-10.85;100.00;99779.52;1787827;79;21526;-63
2021/12/22 00:13:57;;;;;;;18.70;8.53;;;;;;;-10.88;100.00;99782.42;1808547;79;20988;-63
2021/12/22 00:16:24;;;;;;;18.35;8.18;;;;;;;-10.87;100.00;99784.06;1734954;82;21554;-63
2021/12/22 00:18:50;;;;;;;;;;;;;;;-10.89;100.00;99780.75;1717832;82;21024;-63
2021/12/22 00:21:17;;;;;;;17.50;7.90;;;;;;;-10.93;100.00;99785.09;1717856;82;20106;-63
2021/12/22 00:23:46;;;;;;;21.52;8.88;;;;;;;-11.03;100.00;99789.02;1789820;79;21030;-63
2021/12/22 00:26:15;;;;;;;18.10;7.92;;;;;;;-11.06;100.00;99792.39;1764024;79;21055;-63
2021/12/22 00:28:42;;;;;;;20.65;8.35;;;;;;;-11.18;100.00;99789.86;1762502;79;21058;-64
2021/12/22 00:31:14;;;;;;;19.30;8.70;;;;;;;-11.28;100.00;99793.41;1791473;79;21066;-63
2021/12/22 00:40:07;;;;;;;25.27;10.55;;;;;;;-11.49;100.00;99791.31;1782590;78;23045;-63
2021/12/22 00:42:36;;;;;;;26.97;12.03;;;;;;;-11.57;100.00;99797.69;1704692;82;21509;-63
2021/12/22 00:45:05;;;;;;;26.90;11.15;;;;;;;-11.62;100.00;99798.91;1724685;81;20998;-64
2021/12/22 00:47:33;;;;;;;22.87;10.65;;;;;;;-11.71;100.00;99802.36;1743847;81;21062;-64
2021/12/22 00:49:59;;;;;;;28.67;11.12;;;;;;;-11.73;100.00;99812.17;1754375;82;21045;-63
2021/12/22 00:52:26;;;;;;;25.05;10.65;;;;;;;-11.74;100.00;99801.78;1747445;81;21592;-63
2021/12/22 00:54:53;;;;;;;19.37;9.25;;;;;;;-11.78;100.00;99811.71;1738150;81;21011;-63
2021/12/22 00:57:20;;;;;;;19.67;9.28;;;;;;;-11.83;100.00;99813.88;1744639;82;21583;-63
2021/12/22 00:59:46;;;;;;;;;;;;;;;-11.87;100.00;99815.59;1742433;81;21480;-64
2021/12/22 01:02:16;;;;;;;19.48;8.95;;;;;;;-11.94;100.00;99815.75;1742711;81;20126;-64
2021/12/22 01:04:43;;;;;;;18.07;7.85;;;;;;;-12.03;100.00;99813.88;1737921;81;21029;-64
2021/12/22 01:07:10;;;;;;;24.72;9.30;;;;;;;-12.09;100.00;99809.98;1732642;81;21120;-63
2021/12/22 01:09:36;;;;;;;18.62;8.63;;;;;;;-12.14;100.00;99809.51;1732966;81;21025;-63
2021/12/22 01:12:04;;;;;;;22.02;8.70;;;;;;;-12.17;100.00;99809.77;1734289;81;21081;-64
2021/12/22 01:14:32;;;;;;;25.23;8.90;;;;;;;-12.21;100.00;99810.97;1740464;81;21093;-64
2021/12/22 01:17:01;;;;;;;23.80;9.53;;;;;;;-12.24;100.00;99813.38;1740746;82;21034;-63
2021/12/22 01:19:36;;;;;;;22.95;9.15;;;;;;;-12.24;100.00;99825.19;1744129;81;21722;-64
2021/12/22 01:22:04;;;;;;;21.93;9.20;;;;;;;-12.25;100.00;99823.98;1725989;81;21062;-63
2021/12/22 01:24:34;;;;;;;21.37;9.23;;;;;;;-12.28;100.00;99826.39;1740046;81;21010;-63
2021/12/22 01:27:09;;;;;;;19.42;8.25;;;;;;;-12.32;100.00;99828.06;1761492;81;21028;-64
2021/12/22 01:29:32;;;;;;;21.97;9.35;;;;;;;-12.36;100.00;99823.55;1739893;82;21037;-63
2021/12/22 01:31:59;;;;;;;19.60;7.90;;;;;;;-12.43;100.00;99834.69;1731120;82;21034;-64
2021/12/22 01:34:25;;;;;;;22.93;8.45;;;;;;;-12.51;100.00;99831.84;1745288;82;21516;-64
2021/12/22 01:36:52;;;;;;;19.37;7.65;;;;;;;-12.54;100.00;99832.93;1725715;83;21093;-63
2021/12/22 01:39:18;;;;;;;18.65;8.10;;;;;;;-12.58;100.00;99837.23;1722901;82;21117;-64
2021/12/22 01:41:45;;;;;;;23.85;8.33;;;;;;;-12.61;100.00;99835.69;1731620;82;21102;-64
2021/12/22 01:44:13;;;;;;;24.07;9.03;;;;;;;-12.60;100.00;99837.81;1728915;82;21031;-63
2021/12/22 01:49:50;;;;;;;20.23;7.78;;;;;;;-12.65;100.00;99850.00;1700975;83;21457;-63
2021/12/22 01:59:28;;;;;;;22.27;8.73;;;;;;;-12.70;100.00;99849.05;1799777;79;22939;-63
2021/12/22 02:01:56;;;;;;;19.57;7.62;;;;;;;-12.76;100.00;99860.50;1730848;81;21106;-63
2021/12/22 02:04:23;;;;;;;20.32;8.15;;;;;;;-12.78;100.00;99856.67;1728093;82;21093;-63
2021/12/22 02:06:50;;;;;;;19.80;7.72;;;;;;;-12.78;100.00;99860.61;1729087;80;21090;-63
2021/12/22 02:09:30;;;;;;;19.87;8.20;;;;;;;-12.80;100.00;99862.53;1721178;83;21600;-63
2021/12/22 02:11:46;;;;;;;23.25;9.10;;;;;;;-12.82;100.00;99857.88;1725778;82;21118;-63
2021/12/22 02:14:12;;;;;;;20.02;6.72;;;;;;;-12.84;100.00;99859.80;1733958;82;21027;-63
2021/12/22 02:16:40;;;;;;;23.42;8.60;;;;;;;-12.90;100.00;99866.84;1735241;82;21015;-63
2021/12/22 02:19:09;;;;;;;20.77;7.50;;;;;;;-12.97;100.00;99862.19;1734247;81;21550;-63
2021/12/22 02:21:45;;;;;;;20.65;8.50;;;;;;;-13.03;100.00;99863.95;1743414;80;21688;-64
2021/12/22 02:24:05;;;;;;;25.85;9.00;;;;;;;-13.06;100.00;99865.04;1735779;82;21039;-63
2021/12/22 02:26:39;;;;;;;17.70;7.62;;;;;;;-13.08;100.00;99866.13;1717702;83;21508;-63
2021/12/22 02:29:18;;;;;;;25.40;9.50;;;;;;;-13.09;100.00;99861.39;1738564;82;21518;-64
2021/12/22 02:31:36;;;;;;;23.83;8.25;;;;;;;-13.08;100.00;99864.81;1729996;82;21073;-65
2021/12/22 02:33:59;;;;;;;23.47;8.88;;;;;;;-13.09;100.00;99864.00;1731033;82;21082;-64
2021/12/22 02:36:29;;;;;;;18.77;7.78;;;;;;;-13.07;100.00;99867.80;1744392;80;21050;-64
2021/12/22 02:38:56;;;;;;;20.45;7.55;;;;;;;-13.07;100.00;99855.50;1741225;82;21058;-64
2021/12/22 02:41:27;;;;;;;14.28;5.35;;;;;;;-13.04;100.00;99870.17;1734387;82;21047;-63
2021/12/22 02:43:55;;;;;;;19.10;7.03;;;;;;;-13.05;100.00;99865.41;1737149;82;21483;-64
2021/12/22 02:46:32;;;;;;;16.15;6.37;;;;;;;-13.04;100.00;99869.70;1749281;80;21498;-64
2021/12/22 02:49:01;;;;;;;17.30;6.70;;;;;;;-13.04;100.00;99866.25;1702984;82;21429;-63
2021/12/22 02:51:28;;;;;;;16.85;7.67;;;;;;;-13.06;100.00;99872.06;1733941;82;21042;-64
2021/12/22 02:56:37;;;;;;;16.82;6.92;;;;;;;-13.12;100.00;99870.80;1742843;80;21090;-64
2021/12/22 02:59:53;;;;;;;17.75;7.42;;;;;;;-13.12;100.00;99876.51;1722741;82;21048;-64
2021/12/22 03:04:11;;;;;;;15.20;7.12;;;;;;;-13.15;100.00;99880.21;1678256;85;21063;-64
2021/12/22 03:06:52;;;;;;;16.42;7.08;;;;;;;-13.17;100.00;99879.48;1712606;82;21465;-64
2021/12/22 03:09:27;;;;;;;15.70;6.78;;;;;;;-13.18;100.00;99880.45;1718339;82;21063;-64
2021/12/22 03:11:56;;;;;;;20.77;8.58;;;;;;;-13.18;100.00;99881.77;1719806;82;21052;-62
2021/12/22 03:14:24;;;;;;;18.75;7.83;;;;;;;-13.19;100.00;99885.33;1722171;82;21070;-63
2021/12/22 03:16:51;;;;;;;17.40;7.83;;;;;;;-13.19;100.00;99886.16;1733945;81;21669;-63
2021/12/22 03:19:21;;;;;;;21.62;8.15;;;;;;;-13.20;100.00;99884.48;1715029;82;21095;-63
2021/12/22 03:21:49;;;;;;;24.35;10.32;;;;;;;-13.22;100.00;99889.50;1719015;81;21562;-63
2021/12/22 03:24:18;;;;;;;26.23;10.32;;;;;;;-13.27;100.00;99889.84;1720194;82;21015;-63
2021/12/22 03:26:44;;;;;;;23.35;8.85;;;;;;;-13.29;100.00;99896.16;1737688;81;21623;-63
2021/12/22 03:29:13;;;;;;;20.60;8.05;;;;;;;-13.29;100.00;99894.84;1736237;82;21011;-63
2021/12/22 03:31:40;;;;;;;18.05;7.97;;;;;;;-13.25;100.00;99902.83;1736473;81;20984;-63
2021/12/22 03:34:06;;;;;;;18.40;7.67;;;;;;;-13.18;100.00;99877.83;1731254;83;20987;-63
2021/12/22 03:36:33;;;;;;;18.77;8.48;;;;;;;-13.07;100.00;99895.31;1719227;82;21526;-63
2021/12/22 03:39:00;;;;;;;21.60;10.08;;;;;;;-12.97;100.00;99895.79;1719387;82;20983;-63
2021/12/22 03:41:26;;;;;;;27.13;10.90;;;;;;;-12.83;100.00;99907.81;1718270;82;21533;-63
2021/12/22 03:43:52;;;;;;;29.27;12.43;;;;;;;-12.74;100.00;99905.77;1717940;83;21031;-63
2021/12/22 03:46:19;;;;;;;27.10;11.85;;;;;;;-12.66;100.00;99902.91;1720234;82;21075;-63
2021/12/22 03:48:45;;;;;;;24.80;10.18;;;;;;;-12.55;100.00;99903.85;1731645;82;21074;-64
2021/12/22 03:51:11;;;;;;;19.70;7.45;;;;;;;-12.49;100.00;99906.81;1737337;81;21102;-63
2021/12/22 03:53:38;;;;;;;17.85;7.15;;;;;;;-12.43;100.00;99919.94;1724649;82;21008;-64
2021/12/22 03:56:04;;;;;;;18.95;7.62;;;;;;;-12.38;100.00;99929.09;1728714;81;21530;-63
2021/12/22 03:58:31;;;;;;;14.98;6.50;;;;;;;-12.34;100.00;99926.59;1737513;82;21078;-63
2021/12/22 04:00:58;;;;;;;12.45;5.28;;;;;;;-12.27;100.00;99929.08;1730591;81;21068;-63
2021/12/22 04:03:29;;;;;;;18.85;7.50;;;;;;;-12.22;100.00;99924.27;1717654;83;21608;-63
2021/12/22 04:05:53;;;;;;;13.90;5.87;;;;;;;-12.16;100.00;99930.37;1720485;82;21103;-64
2021/12/22 04:08:20;;;;;;;16.90;6.22;;;;;;;-12.13;100.00;99929.28;1739720;82;21114;-63
2021/12/22 04:10:49;;;;;;;15.98;6.28;;;;;;;-12.08;100.00;99937.63;1736237;81;21036;-64
2021/12/22 04:13:16;;;;;;;14.20;6.05;;;;;;;-12.03;100.00;99938.55;1736052;82;21476;-64
2021/12/22 04:15:44;;;;;;;11.88;6.08;;;;;;;-11.96;100.00;99937.93;1730966;82;21689;-63
2021/12/22 04:18:12;;;;;;;14.65;6.15;;;;;;;-11.90;100.00;99944.49;1717816;82;21067;-64
2021/12/22 04:20:38;;;;;;;13.68;6.33;;;;;;;-11.87;100.00;99941.61;1727755;81;21035;-63
2021/12/22 04:23:05;;;;;;;13.10;5.62;;;;;;;-11.84;100.00;99947.45;1736521;82;21022;-64
2021/12/22 04:25:32;;;;;;;16.17;7.15;;;;;;;-11.82;100.00;99945.52;1732914;82;21067;-63
2021/12/22 04:28:05;;;;;;;14.83;6.35;;;;;;;-11.78;100.00;99946.94;1717967;82;20991;-63
2021/12/22 04:30:34;;;;;;;13.48;5.87;;;;;;;-11.78;100.00;99945.63;1715292;83;21054;-63
2021/12/22 04:33:02;;;;;;;13.75;6.08;;;;;;;-11.79;100.00;99950.52;1714108;82;20962;-64
2021/12/22 04:35:29;;;;;;;17.70;6.75;;;;;;;-11.79;100.00;99945.27;1717189;82;21455;-64
2021/12/22 04:37:55;;;;;;;;;;;;;;;-11.79;100.00;99944.42;1710869;83;20991;-63
2021/12/22 04:40:22;;;;;;;16.80;6.17;;;;;;;-11.80;100.00;99950.18;1707626;84;20459;-64
2021/12/22 04:42:50;;;;;;;12.73;5.92;;;;;;;-11.82;100.00;99948.14;1710037;83;21019;-64
2021/12/22 04:45:18;;;;;;;14.95;6.40;;;;;;;-11.78;100.00;99948.73;1718062;81;21004;-64
2021/12/22 04:47:45;;;;;;;14.00;6.05;;;;;;;-11.80;100.00;99947.56;1729616;82;20964;-63
2021/12/22 04:50:16;;;;;;;15.58;6.97;;;;;;;-11.80;100.00;99954.13;1713631;82;21565;-63
2021/12/22 04:52:55;;;;;;;16.45;6.72;;;;;;;-11.77;100.00;99955.66;1714634;82;20980;-64
2021/12/22 04:55:18;;;;;;;9.93;4.20;;;;;;;-11.77;100.00;99963.06;1709427;81;21043;-64
2021/12/22 04:57:44;;;;;;;11.03;5.20;;;;;;;-11.76;100.00;99963.90;1737979;82;21105;-64
2021/12/22 05:00:12;;;;;;;12.25;5.22;;;;;;;-11.75;100.00;99963.75;1731694;82;21078;-63
2021/12/22 05:02:38;;;;;;;13.03;5.72;;;;;;;-11.74;100.00;99969.37;1703857;84;21003;-64
2021/12/22 05:05:06;;;;;;;11.43;5.67;;;;;;;-11.73;100.00;99971.52;1701753;84;21051;-63
2021/12/22 05:07:33;;;;;;;12.15;5.35;;;;;;;-11.72;100.00;99973.16;1674704;84;21059;-63
2021/12/22 05:09:59;;;;;;;10.60;4.92;;;;;;;-11.71;100.00;99983.56;1674857;85;21550;-63
2021/12/22 05:12:25;;;;;;;13.78;4.90;;;;;;;-11.68;100.00;99978.49;1691669;84;21084;-63
2021/12/22 05:14:52;;;;;;;11.38;4.92;;;;;;;-11.69;100.00;99973.72;1694025;82;21004;-64
2021/12/22 05:17:26;;;;;;;13.30;5.50;;;;;;;-11.69;100.00;99976.84;1708141;81;21556;-63
2021/12/22 05:19:48;;;;;;;12.98;4.83;;;;;;;-11.70;100.00;99977.80;1717015;82;21074;-64
2021/12/22 05:22:15;;;;;;;;;;;;;;;-11.68;100.00;99976.70;1711729;82;21683;-64
2021/12/22 05:24:41;;;;;;;11.75;4.85;;;;;;;-11.65;100.00;99988.27;1723598;82;20111;-63
2021/12/22 05:27:11;;;;;;;11.28;4.85;;;;;;;-11.70;100.00;99997.02;1737821;81;21921;-63
2021/12/22 05:29:36;;;;;;;13.60;4.92;;;;;;;-11.66;100.00;99991.88;1737621;82;21059;-63
2021/12/22 05:32:04;;;;;;;11.03;4.87;;;;;;;-11.64;100.00;99999.14;1712711;82;21023;-63
2021/12/22 05:34:30;;;;;;;14.03;5.45;;;;;;;-11.62;100.00;99999.83;1697146;82;20972;-63
2021/12/22 05:36:57;;;;;;;12.85;5.87;;;;;;;-11.58;100.00;99991.73;1718244;82;21594;-63
2021/12/22 05:39:23;;;;;;;14.23;6.33;;;;;;;-11.54;100.00;99995.75;1718943;82;20992;-63
2021/12/22 05:41:50;;;;;;;19.35;7.28;;;;;;;-11.53;100.00;100000.89;1714041;82;21083;-63
2021/12/22 05:44:16;;;;;;;20.62;8.05;;;;;;;-11.48;100.00;100002.67;1719472;82;21063;-63
2021/12/22 05:46:43;;;;;;;18.42;8.30;;;;;;;-11.46;100.00;99995.96;1736694;81;21043;-63
2021/12/22 05:49:09;;;;;;;14.28;6.30;;;;;;;-11.45;100.00;100009.46;1732037;82;20980;-63
2021/12/22 05:51:36;;;;;;;13.83;6.75;;;;;;;-11.41;100.00;100009.57;1716944;82;21042;-63
2021/12/22 05:54:03;;;;;;;15.15;6.00;;;;;;;-11.39;100.00;100016.83;1685342;84;21023;-63
2021/12/22 05:56:30;;;;;;;13.80;5.60;;;;;;;-11.39;100.00;100018.14;1717896;83;21578;-64
2021/12/22 05:58:56;;;;;;;15.05;5.97;;;;;;;-11.36;100.00;100020.52;1727991;82;21071;-63
2021/12/22 06:01:23;;;;;;;13.90;6.25;;;;;;;-11.32;100.00;100024.56;1722749;81;21043;-63
2021/12/22 06:03:49;;;;;;;15.85;5.58;;;;;;;-11.29;100.00;100023.83;1721590;82;21063;-64
2021/12/22 06:06:16;;;;;;;13.55;4.90;;;;;;;-11.27;100.00;100032.92;1717692;83;21007;-64
2021/12/22 06:08:43;;;;;;;14.45;4.95;;;;;;;-11.23;100.00;100028.58;1716339;82;21054;-64
2021/12/22 06:11:09;;;;;;;13.35;4.97;;;;;;;-11.22;100.00;100026.31;1709893;82;21076;-63
2021/12/22 06:13:36;;;;;;;;;;;;;;;-11.18;100.00;100038.24;1684320;84;21078;-65
2021/12/22 06:16:05;;;;;;;13.62;4.55;;;;;;;-11.13;100.00;100037.87;1707197;82;20429;-67
2021/12/22 06:18:31;;;;;;;10.70;4.25;;;;;;;-11.14;100.00;100043.60;1713111;83;21418;-66
2021/12/22 06:20:58;;;;;;;;;;;;;;;-11.10;100.00;100046.81;1721431;82;21067;-65
2021/12/22 06:23:25;;;;;;;7.58;3.40;;;;;;;-11.04;100.00;100057.29;1719695;82;20115;-66
2021/12/22 06:25:51;;;;;;;8.45;3.42;;;;;;;-11.01;100.00;100064.44;1716222;82;21082;-66
2021/12/22 06:28:18;;;;;;;9.38;3.50;;;;;;;-10.94;100.00;100068.23;1715739;83;20976;-65
2021/12/22 06:30:44;;;;;;;7.70;3.30;;;;;;;-10.90;100.00;100073.59;1723275;81;21068;-64
2021/12/22 06:33:11;;;;;;;8.38;4.00;;;;;;;-10.84;100.00;100074.89;1734595;82;21043;-64
2021/12/22 06:35:37;;;;;;;10.25;3.50;;;;;;;-10.85;100.00;100074.05;1728170;82;21064;-64
2021/12/22 06:38:04;;;;;;;11.28;4.40;;;;;;;-10.84;100.00;100084.91;1725646;82;21024;-65
2021/12/22 06:40:30;;;;;;;9.03;3.77;;;;;;;-10.78;100.00;100086.21;1726248;81;21031;-66
2021/12/22 06:42:56;;;;;;;9.68;3.62;;;;;;;-10.72;100.00;100087.84;1737065;82;21032;-66
2021/12/22 06:45:23;;;;;;;13.03;4.25;;;;;;;-10.68;100.00;100089.73;1737113;81;21007;-66
2021/12/22 06:47:50;;;;;;;10.15;4.08;;;;;;;-10.64;100.00;100084.58;1737442;82;21102;-66
2021/12/22 06:50:16;;;;;;;11.05;4.60;;;;;;;-10.59;100.00;100086.83;1737537;81;21091;-67
2021/12/22 06:52:43;;;;;;;13.15;4.45;;;;;;;-10.59;100.00;100099.47;1737860;82;20999;-67
2021/12/22 06:55:09;;;;;;;10.45;4.17;;;;;;;-10.56;100.00;100099.72;1737290;82;21043;-67
2021/12/22 06:57:35;;;;;;;;;;;;;;;-10.54;100.00;100108.30;1721326;82;21614;-67
2021/12/22 07:00:05;;;;;;;11.35;4.28;;;;;;;-10.54;100.00;100091.20;1738041;82;20111;-67
2021/12/22 07:02:36;;;;;;;8.15;3.83;;;;;;;-10.56;100.00;100100.56;1691665;83;21044;-67
2021/12/22 07:05:00;;;;;;;13.70;4.55;;;;;;;-10.53;100.00;100106.03;1723332;83;21092;-67
2021/12/22 07:07:26;;;;;;;11.55;4.70;;;;;;;-10.52;100.00;100101.13;1723527;82;21129;-67
2021/12/22 07:09:53;;;;;;;11.18;4.65;;;;;;;-10.48;100.00;100106.47;1723681;83;21148;-66
2021/12/22 07:12:21;;;;;;;11.33;4.08;;;;;;;-10.44;100.00;100110.51;1723632;82;21076;-66
2021/12/22 07:14:47;;;;;;;10.25;3.40;;;;;;;-10.37;100.00;100108.55;1723633;83;21092;-66
2021/12/22 07:17:14;;;;;;;9.00;3.35;;;;;;;-10.29;100.00;100109.22;1723603;82;21080;-66
2021/12/22 07:19:40;;;;;;;8.33;3.70;;;;;;;-10.21;100.00;100114.20;1723827;83;21103;-66
2021/12/22 07:22:06;;;;;;;10.28;4.67;;;;;;;-10.12;100.00;100116.48;1723764;82;21099;-66
2021/12/22 07:24:33;;;;;;;10.03;4.20;;;;;;;-10.08;100.00;100121.84;1705710;82;21071;-66
2021/12/22 07:27:00;;;;;;;9.68;3.45;;;;;;;-10.12;100.00;100120.42;1727164;82;21114;-67
2021/12/22 07:29:26;;;;;;;10.72;4.20;;;;;;;-10.09;100.00;100118.84;1731257;82;21444;-67
2021/12/22 07:31:53;;;;;;;7.70;3.35;;;;;;;-10.11;100.00;100121.63;1722872;83;21040;-68
2021/12/22 07:34:38;;;;;;;7.92;3.65;;;;;;;-10.10;100.00;100118.52;1709445;83;22611;-67
2021/12/22 07:37:16;;;;;;;8.88;3.25;;;;;;;-10.12;100.00;100122.58;1724176;82;21119;-67
2021/12/22 07:39:43;;;;;;;6.47;2.85;;;;;;;-10.08;100.00;100128.42;1693842;83;21043;-67
2021/12/22 07:42:09;;;;;;;7.03;2.90;;;;;;;-9.96;100.00;100127.38;1657157;86;20999;-67
2021/12/22 07:44:35;;;;;;;7.78;3.80;;;;;;;-9.92;100.00;100130.11;1693231;84;21522;-67
2021/12/22 07:47:02;;;;;;;8.35;3.40;;;;;;;-9.83;100.00;100130.62;1721813;83;21718;-66
2021/12/22 07:49:28;;;;;;;;;;;;;;;-9.77;100.00;100131.39;1725939;83;21007;-66
2021/12/22 07:51:55;;;;;;;7.47;2.87;;;;;;;-9.77;100.00;100133.19;1723160;83;20087;-67
2021/12/22 07:54:21;;;;;;;6.50;3.27;;;;;;;-9.73;100.00;100138.07;1726347;82;21711;-66
2021/12/22 07:56:47;;;;;;;8.50;3.20;;;;;;;-9.73;100.00;100138.07;1723272;83;21039;-66
2021/12/22 07:59:14;;;;;;;;;;;;;;;-9.68;100.00;100142.95;1707071;83;21054;-66
2021/12/22 08:01:40;;;;;;;5.87;2.15;;;;;;;-9.70;100.00;100135.64;1722693;83;20147;-67
2021/12/22 08:04:07;;;;;;;;;;;;;;;-9.79;100.00;100139.92;1723637;82;20975;-66
2021/12/22 08:06:34;;;;;;;7.00;2.50;;;;;;;-9.74;100.00;100137.70;1722249;82;20145;-67
2021/12/22 08:09:00;;;;;;;5.10;2.65;;;;;;;-9.72;100.00;100135.80;1703197;84;21503;-66
2021/12/22 08:11:28;;;;;;;4.25;2.02;;;;;;;-9.74;100.00;100139.54;1713111;83;21051;-67
2021/12/22 08:13:54;;;;;;;5.37;2.40;;;;;;;-9.75;100.00;100137.38;1694873;83;21066;-66
2021/12/22 08:16:21;;;;;;;6.08;2.67;;;;;;;-9.79;100.00;100134.66;1722924;83;21176;-66
2021/12/22 08:18:47;;;;;;;4.78;2.50;;;;;;;-9.82;100.00;100134.09;1722905;83;21081;-67
2021/12/22 08:21:14;;;;;;;5.47;2.42;;;;;;;-9.82;100.00;100128.34;1722937;83;21042;-67
2021/12/22 08:26:05;;;;;;;6.53;2.67;;;;;;;-9.74;100.00;100123.22;1791109;79;23376;-66
2021/12/22 08:28:32;;;;;;;;;;;;;;;-9.79;100.00;100126.75;1755373;82;21502;-67
2021/12/22 08:30:58;;;;;;;7.80;3.60;;;;;;;-9.70;100.00;100125.10;1752669;82;20118;-66
2021/12/22 08:33:27;;;;;;;5.50;2.77;;;;;;;-9.62;100.00;100119.53;1752746;82;21832;-66
2021/12/22 08:38:50;;;;;;;7.47;3.20;;;;;;;-9.46;100.00;100120.83;1752707;82;21047;-65
2021/12/22 08:41:20;;;;;;;5.87;2.67;;;;;;;-9.37;100.00;100125.27;1734024;82;21054;-66
2021/12/22 08:43:47;;;;;;;6.33;3.10;;;;;;;-9.28;100.00;100127.11;1752920;82;21003;-66
2021/12/22 08:46:13;;;;;;;9.03;3.80;;;;;;;-9.20;100.00;100129.40;1734158;82;21134;-66
2021/12/22 08:48:41;;;;;;;8.08;3.55;;;;;;;-9.14;100.00;100128.04;1752683;82;21029;-66
2021/12/22 08:51:07;;;;;;;11.22;4.90;;;;;;;-9.17;100.00;100129.13;1719598;83;21659;-66
2021/12/22 08:53:34;;;;;;;14.38;6.22;;;;;;;-9.17;100.00;100123.84;1720008;83;21041;-66
2021/12/22 08:56:00;;;;;;;12.90;6.08;;;;;;;-9.10;100.00;100127.60;1712302;84;21695;-67
2021/12/22 08:58:27;;;;;;;10.65;4.62;;;;;;;-9.06;100.00;100122.89;1696706;84;21027;-67
2021/12/22 09:00:53;;;;;;;9.43;4.45;;;;;;;-8.92;100.00;100118.52;1683817;85;21596;-67
2021/12/22 09:03:19;;;;;;;11.63;4.97;;;;;;;-8.81;100.00;100121.03;1683635;85;21464;-67
2021/12/22 09:05:46;;;;;;;14.38;6.67;;;;;;;-8.72;100.00;100113.61;1683922;85;21089;-67
2021/12/22 09:08:14;;;;;;;12.43;6.33;;;;;;;-8.70;100.00;100109.49;1684132;84;21078;-68
2021/12/22 09:10:40;;;;;;;;;;;;;;;-8.65;100.00;100120.00;1686145;85;21137;-68
2021/12/22 09:13:07;;;;;;;13.45;6.72;;;;;;;-8.66;100.00;100120.95;1683508;85;20161;-67
2021/12/22 09:15:33;;;;;;;12.15;6.08;;;;;;;-8.60;100.00;100126.15;1699889;84;21110;-67
2021/12/22 09:17:59;;;;;;;13.00;6.28;;;;;;;-8.50;100.00;100122.20;1712018;84;21588;-67
2021/12/22 09:20:28;;;;;;;15.18;7.05;;;;;;;-8.39;100.00;100120.70;1712208;84;21151;-67
2021/12/22 09:22:54;;;;;;;13.40;6.35;;;;;;;-8.33;100.00;100117.03;1712208;84;21054;-67
2021/12/22 09:25:20;;;;;;;12.05;6.37;;;;;;;-8.18;100.00;100108.95;1707952;83;21786;-67
2021/12/22 09:27:47;;;;;;;13.80;6.75;;;;;;;-8.02;100.00;100116.77;1714772;84;21087;-67
2021/12/22 09:30:13;;;;;;;11.90;6.15;;;;;;;-7.88;100.00;100109.20;1686509;85;21057;-67
2021/12/22 09:32:40;;;;;;;13.85;6.33;;;;;;;-7.81;100.00;100112.93;1697047;84;21576;-67
2021/12/22 09:35:07;;;;;;;12.58;6.92;;;;;;;-7.66;100.00;100110.16;1703652;84;21030;-67
2021/12/22 09:37:33;;;;;;;10.48;5.83;;;;;;;-7.48;100.00;100106.72;1714263;84;21112;-67
2021/12/22 09:40:02;;;;;;;11.80;6.22;;;;;;;-7.47;100.00;100107.88;1686793;83;21528;-68
2021/12/22 09:42:28;;;;;;;17.17;8.48;;;;;;;-7.54;100.00;100111.29;1699695;84;21513;-67
2021/12/22 09:44:59;;;;;;;12.58;5.95;;;;;;;-7.56;100.00;100111.42;1713949;84;21066;-66
2021/12/22 09:47:28;;;;;;;11.22;4.92;;;;;;;-7.49;100.00;100112.50;1709756;83;21118;-67
2021/12/22 09:50:10;;;;;;;18.32;9.70;;;;;;;-7.41;100.00;100106.47;1713845;84;21505;-68
2021/12/22 09:52:37;;;;;;;13.03;6.30;;;;;;;-7.49;100.00;100104.56;1714291;83;21507;-67
2021/12/22 09:55:05;;;;;;;14.40;7.50;;;;;;;-7.63;100.00;100098.45;1687572;84;20967;-67
2021/12/22 09:57:31;;;;;;;11.53;6.17;;;;;;;-7.70;100.00;100096.05;1714822;83;20975;-66
2021/12/22 09:59:59;;;;;;;10.80;5.97;;;;;;;-7.74;100.00;100097.31;1680567;84;21495;-68
2021/12/22 10:02:29;;;;;;;15.40;7.83;;;;;;;-7.60;100.00;100095.51;1703184;84;21080;-68
2021/12/22 10:04:58;;;;;;;11.63;6.40;;;;;;;-7.57;100.00;100096.05;1684166;85;21492;-67
2021/12/22 10:07:27;;;;;;;15.10;7.42;;;;;;;-7.44;100.00;100100.16;1702360;84;21094;-67
2021/12/22 10:09:55;;;;;;;21.07;8.93;;;;;;;-7.34;100.00;100097.80;1684257;85;21072;-67
2021/12/22 10:12:25;;;;;;;13.55;6.28;;;;;;;-7.34;100.00;100098.29;1676678;84;21094;-67
2021/12/22 10:14:55;;;;;;;13.43;6.60;;;;;;;-7.42;100.00;100095.06;1678472;85;21022;-67
2021/12/22 10:17:40;;;;;;;17.70;8.75;;;;;;;-7.59;100.00;100098.50;1677927;85;21055;-67
2021/12/22 10:20:10;;;;;;;9.98;5.33;;;;;;;-7.74;100.00;100096.00;1668676;85;21070;-67
2021/12/22 10:22:47;;;;;;;10.60;5.37;;;;;;;-7.84;100.00;100096.53;1673353;86;21102;-67
2021/12/22 10:25:22;;;;;;;7.70;3.63;;;;;;;-7.96;100.00;100097.20;1669375;84;21044;-66
2021/12/22 10:28:05;;;;;;;11.68;6.15;;;;;;;-8.11;100.00;100094.19;1714213;82;21300;-66
2021/12/22 10:30:36;;;;;;;16.07;7.30;;;;;;;-8.17;100.00;100099.22;1722997;82;21611;-67
2021/12/22 10:33:14;;;;;;;13.65;5.85;;;;;;;-8.15;100.00;100099.92;1721021;82;21027;-67
2021/12/22 10:35:45;;;;;;;10.03;5.35;;;;;;;-8.12;100.00;100095.67;1722719;82;21075;-68
2021/12/22 10:38:13;;;;;;;10.05;5.08;;;;;;;-8.13;100.00;100095.31;1736038;82;21119;-67
2021/12/22 10:40:43;;;;;;;11.83;5.92;;;;;;;-8.18;100.00;100094.42;1722629;82;21075;-67
2021/12/22 10:43:26;;;;;;;10.82;6.15;;;;;;;-8.20;100.00;100093.74;1738947;82;21542;-67
2021/12/22 10:45:56;;;;;;;8.58;3.80;;;;;;;-8.25;100.00;100091.17;1715376;82;21626;-67
2021/12/22 10:51:14;;;;;;;11.65;5.75;;;;;;;-8.25;100.00;100103.05;1733417;82;21071;-67
2021/12/22 10:53:46;;;;;;;15.95;6.70;;;;;;;-8.21;100.00;100099.16;1736906;82;21091;-66
2021/12/22 10:56:34;;;;;;;28.65;10.00;;;;;;;-8.21;100.00;100101.31;1717666;82;21082;-66
2021/12/22 10:59:17;;;;;;;13.32;6.00;;;;;;;-8.18;100.00;100097.06;1712701;82;20960;-67
2021/12/22 11:02:09;;;;;;;15.88;6.60;;;;;;;-8.09;100.00;100101.98;1725139;82;21578;-67
2021/12/22 11:04:42;;;;;;;11.60;5.15;;;;;;;-8.10;100.00;100105.59;1697514;83;21519;-68
2021/12/22 11:07:20;;;;;;;10.35;4.78;;;;;;;-8.13;100.00;100100.11;1670602;84;21143;-69
2021/12/22 11:09:43;;;;;;;15.30;6.67;;;;;;;-8.08;100.00;100098.37;1692333;84;21042;-69
2021/12/22 11:12:13;;;;;;;20.10;8.13;;;;;;;-8.09;100.00;100098.02;1699414;84;21082;-68
2021/12/22 11:14:42;;;;;;;10.63;5.22;;;;;;;-8.12;100.00;100096.51;1686881;84;21091;-66
2021/12/22 11:17:13;;;;;;;9.50;4.70;;;;;;;-8.12;100.00;100094.34;1679738;84;21067;-68
2021/12/22 11:20:03;;;;;;;19.00;7.45;;;;;;;-8.06;100.00;100084.52;1681592;84;21067;-69
2021/12/22 11:22:58;;;;;;;17.65;6.80;;;;;;;-8.11;100.00;100090.70;1670873;86;21051;-68
2021/12/22 11:25:21;;;;;;;14.65;6.47;;;;;;;-8.09;100.00;100088.77;1678425;84;21209;-69
2021/12/22 11:27:49;;;;;;;12.07;5.65;;;;;;;-8.05;100.00;100083.55;1677747;85;21078;-69
2021/12/22 11:30:16;;;;;;;9.18;4.70;;;;;;;-7.96;100.00;100087.95;1673769;85;21039;-69
2021/12/22 11:32:43;;;;;;;13.08;6.50;;;;;;;-7.95;100.00;100084.83;1668524;85;21077;-68
2021/12/22 11:35:11;;;;;;;9.83;4.50;;;;;;;-7.97;100.00;100085.47;1629566;85;21038;-68
2021/12/22 11:37:38;;;;;;;14.13;5.92;;;;;;;-7.95;100.00;100084.83;1685398;85;21126;-69
2021/12/22 11:40:09;;;;;;;;;;;;;;;-7.99;100.00;100090.05;1686441;84;20998;-69
2021/12/22 11:42:39;;;;;;;44.67;11.88;;;;;;;-8.03;100.00;100093.47;1675937;85;20816;-69
2021/12/22 11:45:17;;;;;;;27.35;7.40;;;;;;;-8.08;100.00;100085.16;1659359;86;21515;-70
2021/12/22 11:47:46;;;;;;;28.42;12.33;;;;;;;-8.04;100.00;100093.63;1659542;86;21027;-68